This is the latest recevied weather packets stored in our database for station/object KE9DBJ. If no packets are shown the sender has not sent any weather packets the latest 10 day(s).
| Time | Temp. | Humidity | Pressure | Rain* | Wind** | Luminosity | Snow |
|---|---|---|---|---|---|---|---|
| 1777056626 | 27.78° C | 44% | 1007.3 hPa | 0 mm | - | - | - |
| 1777051824 | 29.44° C | 40% | 1008.3 hPa | 0 mm | - | - | - |
| 1777048827 | 28.33° C | 44% | 1008.8 hPa | 0 mm | - | - | - |
| 1777048232 | 27.78° C | 44% | 1008.9 hPa | 0 mm | - | - | - |
| 1777041018 | 24.44° C | 52% | 1009.6 hPa | 0 mm | - | - | - |
| 1777033231 | 11.67° C | 99% | 1010.4 hPa | 0 mm | - | - | - |
| 1777027220 | 8.89° C | 99% | 1010.3 hPa | 0 mm | - | - | - |
| 1777024860 | 9.44° C | 99% | 1010.4 hPa | 0 mm | - | - | - |
| 1777023648 | 9.44° C | 99% | 1010.4 hPa | 0 mm | - | - | - |
| 1777021823 | 9.44° C | 99% | 1010.5 hPa | 0 mm | - | - | - |
| 1777016425 | 10° C | 99% | 1010.4 hPa | 0 mm | - | - | - |
| 1777012815 | 10.56° C | 99% | 1010.7 hPa | 0 mm | - | - | - |
| 1777008628 | 11.11° C | 96% | 1011.3 hPa | 0 mm | - | - | - |
| 1777008052 | 11.67° C | 96% | 1011.3 hPa | 0 mm | - | - | - |
| 1777006226 | 11.67° C | 92% | 1011 hPa | 0 mm | - | - | - |
| 1777005631 | 12.22° C | 94% | 1010.9 hPa | 0 mm | - | - | - |
| 1777003230 | 12.78° C | 91% | 1010.9 hPa | 0 mm | - | - | - |
| 1777002616 | 12.78° C | 88% | 1010.8 hPa | 0 mm | - | - | - |
| 1776991821 | 19.44° C | 53% | 1011.2 hPa | 0 mm | - | - | - |
| 1776990630 | 21.11° C | 49% | 1011.2 hPa | 0 mm | - | - | - |
| 1776990016 | 21.67° C | 46% | 1011.2 hPa | 0 mm | - | - | - |
| 1776988229 | 23.89° C | 43% | 1011.2 hPa | 0 mm | - | - | - |
| 1776987636 | 24.44° C | 41% | 1011.2 hPa | 0 mm | - | - | - |
| 1776985828 | 26.11° C | 41% | 1011.3 hPa | 0 mm | - | - | - |
| 1776979242 | 27.78° C | 35% | 1011.7 hPa | 0 mm | - | - | - |
* Rain latest hour (hover to see other rain measurements)
** Current wind speed in m/s (hover to see current wind gust speed)